• Join FlightAware (Why Join?)
  • Login
  • US Flag 
03:59PM EDT


 

Airport Tracker/Info


-or-


 

Live Flight TrackerFlight Track Log ✈ SKW5550 ✈ 20-Aug-2013 ✈ KCOD - KDEN

Flight Track Log - Related Links

Times and Time Zones

All times are in EDT time to prevent confusion due to time zone crossing. See the SKW5550 flight status page for this flight to view local times or setup timezone preferences in your user account.

Time Position Orientation Groundspeed Altitude Reporting Facility
EDT Latitude Longitude Course Direction KTS MPH feet Rate Location/Type
08:04AM 44.4231 -108.8464 157° South 274 315 11,100  Level Salt Lake Center
08:05AM 44.2909 -108.7662 154° Southeast  Level FlightAware Approximate
08:05AM 44.3536 -108.7800 146° Southeast 297 342 12,900  Level Salt Lake Center
08:06AM 44.1843 -108.7029 158° South  Level FlightAware Approximate
08:06AM 44.2781 -108.7117 147° Southeast 311 358 14,600  Level Salt Lake Center
08:07AM 44.0766 -108.6432 159° South  Level FlightAware Approximate
08:07AM 44.1992 -108.6419 148° Southeast 325 374 15,800  Level Salt Lake Center
08:08AM 43.9687 -108.5844 159° South  Level FlightAware Approximate
08:08AM 44.1181 -108.5658 146° Southeast 342 394 17,700  Level Salt Lake Center
08:09AM 43.8618 -108.5221 157° South  Level FlightAware Approximate
08:09AM 44.0406 -108.4939 146° Southeast 340 391 19,500  Level Salt Lake Center
08:10AM 43.9608 -108.4219 147° Southeast 341 392 20,500 960 Climbing Salt Lake Center
08:11AM 43.8781 -108.3475 147° Southeast 353 406 21,500 960 Climbing Salt Lake Center
08:12AM 43.7922 -108.2692 147° Southeast 369 425 22,500 960 Climbing Salt Lake Center
08:13AM 43.7067 -108.1906 146° Southeast 372 428 23,500 840 Climbing Salt Lake Center
08:14AM 43.6183 -108.1114 147° Southeast 378 435 24,200 540 Climbing Salt Lake Center
08:15AM 43.5269 -108.0289 147° Southeast 392 451 24,600 420 Climbing Salt Lake Center
08:16AM 43.4328 -107.9447 147° Southeast 403 464 25,100 540 Climbing Salt Lake Center
08:17AM 43.3353 -107.8586 147° Southeast 414 476 25,700 540 Climbing Salt Lake Center
08:18AM 43.2378 -107.7706 147° Southeast 420 483 26,200 480 Climbing Salt Lake Center
08:19AM 43.1400 -107.6836 147° Southeast 422 486 26,700 480 Climbing Salt Lake Center
08:20AM 43.0397 -107.5958 147° Southeast 430 495 27,200 480 Climbing Salt Lake Center
08:21AM 42.9406 -107.5086 147° Southeast 428 493 27,700 480 Climbing Salt Lake Center
08:22AM 42.8383 -107.4189 147° Southeast 428 493 28,200 480 Climbing Salt Lake Center
08:22AM 42.7736 -107.3622 147° Southeast 430 495 28,500 540 Climbing Denver Center
08:24AM 42.6603 -107.2622 147° Southeast 433 498 29,100 540 Climbing Denver Center
08:25AM 42.5619 -107.1786 148° Southeast 435 501 29,600 480 Climbing Denver Center
08:26AM 42.4642 -107.0928 147° Southeast 437 503 30,100 480 Climbing Denver Center
08:27AM 42.3497 -106.9956 148° Southeast 435 501 30,600 420 Climbing Denver Center
08:28AM 42.2539 -106.9061 145° Southeast 437 503 31,000 180 Climbing Denver Center
08:29AM 42.1586 -106.8136 144° Southeast 443 510 31,000  Level Denver Center
08:30AM 42.0439 -106.7025 144° Southeast 453 521 31,000  Level Denver Center
08:31AM 41.9436 -106.6058 144° Southeast 461 531 31,000  Level Denver Center
08:32AM 41.8358 -106.5006 144° Southeast 466 536 31,000  Level Denver Center
08:33AM 41.7336 -106.4033 145° Southeast 470 541 31,000  Level Denver Center
08:34AM 41.6333 -106.3072 144° Southeast 467 537 31,000 -300 Level Denver Center
08:35AM 41.5142 -106.1939 145° Southeast 470 541 30,500 -840 Descending Denver Center
08:36AM 41.4183 -106.1031 145° Southeast 449 517 29,300 -1,320 Descending Denver Center
08:37AM 41.3103 -105.9997 144° Southeast 435 501 27,900 -1,140 Descending Denver Center
08:38AM 41.2192 -105.9142 145° Southeast 424 488 27,000 -480 Descending Denver Center
08:39AM 41.1294 -105.8297 145° Southeast 416 479 27,000  Level Denver Center
08:40AM 41.0233 -105.7314 145° Southeast 417 480 27,000 -120 Level Denver Center
08:41AM 40.9386 -105.6514 144° Southeast 420 483 26,800 -960 Descending Denver Center
08:42AM 40.8453 -105.5653 145° Southeast 413 475 25,100 -1,680 Descending Denver Center
08:43AM 40.7569 -105.4831 145° Southeast 393 452 23,400 -1,680 Descending Denver Center
08:44AM 40.6708 -105.4042 145° Southeast 380 437 21,700 -1,920 Descending Denver Center
08:45AM 40.5708 -105.3108 145° Southeast 369 425 19,600 -1,920 Descending Denver Center
08:46AM 40.4914 -105.2275 141° Southeast 368 423 17,900 -1,680 Descending Denver Center
08:47AM 40.4519 -105.0947 111° Southeast 372 428 16,200 -1,680 Descending Denver Center
08:48AM 40.4167 -104.9700 110° East 365 420 14,600 -1,500 Descending Denver Center
08:49AM 40.3503 -104.8583 128° Southeast 325 374 12,900 -1,380 Descending Denver Center
08:50AM 40.2675 -104.8125 157° South 323 372 11,600 -1,140 Descending Denver Center
08:51AM 40.1908 -104.7700 157° South 302 348 10,600 -1,260 Descending Denver Center
08:52AM 40.1178 -104.7292 157° South 288 331 9,100 -1,380 Descending Denver Center
08:53AM 40.0472 -104.6978 161° South 271 312 7,800 -1,080 Descending Denver Center
08:54AM 39.9781 -104.6956 179° South 233 268 7,000 -900 Descending Denver Center
08:55AM 39.9300 -104.6958 180° South 180 207 6,000 -840 Descending Denver Center
08:56AM 39.8911 -104.6961 180° South 146 168 5,300 -720 Descending Denver Center